Weather at Cottica Airstrip

Public forecast

Using degrees Celsius for public forecast. Weather courtesy of forecast.io.

Closest aviation weather report (METAR) to Cottica Airstrip

Closest report is Johan Adolf Pengel International Airport, 112.0 nm (207.3 km) NNW. Retrieved 2020/12/04 22:00 UTC (27 minutes ago):

SMJP 042200Z 13011KT 100V160 5000 TSRA SCT015CB BKN020 29/24 Q1011 TEMPO 4000

Closest aviation forecast (TAF) to Cottica Airstrip

Closest forecast is Johan Adolf Pengel International Airport, 112.0 nm (207.3 km) NNW. Retrieved 2020/12/04 18:12 UTC (4 hours ago):

TAF SMJP 041600Z 0418/0518 09008KT 9999 SCT018 TX31/0518Z TN23/0509Z TEMPO 0419/0422 5000 SHRA FEW015CB SCT025 PROB40 TEMPO 0419/0421 TS BECMG 0507/0508 00000KT 0800 FG BKN001 BECMG 0510/0511 09006KT 9999 SCT010